Pickle Lake Airport
CYPL : rendu visible

Aérodrome :











RETROUVEZ-NOUS SUR...

 
LOGIN :

S'inscrire | Disclaimer

   EN    FR    IT 

 









Légende :    VFR   VFR Marginal   IFR   IFR Intensif   IFR Très Intensif
Visi : 
Plafond : 
>= 8 km
>= 3000ft
5 à 8 km
1000 à 3000 ft
1500m à 5 km
500 à 1000 ft
800 à 1500m
200 à 500 ft
< 800m
< 200 ft
Symboles :   Orages  Brouillard  Fortes neiges  Fortes précipitations  Vent > 20 kt






- Altitude de l'aérodrome : 1267 ft
- Code IATA : YPL


CYPL - Pickle Lake

DERNIER METAR :
  • 162300Z AUTO 18011G17KT 9SM FEW040 SCT065 BKN140 OVC160 02/M03 A2978 RMK SLP110

METARs EXPIRÉS :
  • 162200Z AUTO 18013G20KT 9SM BKN120 BKN140 02/M04 A2979 RMK SLP116
  • 162100Z AUTO 17012G17KT 9SM BKN110 01/M04 A2980 RMK SLP118

TAF TAF CYPL
Valide du 16 à 20h jusqu'au 17 à 08h UTC


161944Z 1620/1708 18012G22KT 3SM -SN OVC020
TEMPO 1620/1624 6SM -RASN OVC050
PROB30 1620/1624 2SM -SNPL BR
FM170000 19012KT P6SM -SN OVC030
TEMPO 1700/1703 3SM -SN OVC020
FM170300 20010KT 2SM -SN OVC010
TEMPO 1703/1708 6SM -SN OVC030 RMK FCST BASED ON AUTO OBS. NXT FCST BY 170200Z



MET'MAP, la Météo Aéronautique d'un coup d'oeil ! - Copyright ORBIFLY Décembre 2007 - Disclaimer

ORBIFLY MET'MAP TEAM :

Programmation & Développement : Alexandra Zaïnal
Conception & Développement : Baudouin d'Aumeries
Co-Programmation & Développement : Marc-Olivier Méhu
Soutien technique & logistique : Manuel Goepfert

Contact : metmap@orbifly.com




SOURCES & CREDITS :

   NOAA       Earth
Advisory